createdAt,value
2018-08-10T00:05:01.673Z,19.52
2018-08-10T00:10:09.063Z,19.44
2018-08-10T00:15:14.130Z,19.40
2018-08-10T00:20:18.903Z,19.15
2018-08-10T00:25:23.641Z,19.18
2018-08-10T00:30:28.397Z,19.17
2018-08-10T00:35:33.239Z,19.05
2018-08-10T00:40:38.072Z,19.04
2018-08-10T00:45:42.895Z,19.02
2018-08-10T00:50:47.674Z,18.85
2018-08-10T00:55:52.434Z,18.91
2018-08-10T01:00:57.195Z,18.85
2018-08-10T01:06:02.007Z,18.83
2018-08-10T01:11:06.779Z,18.71
2018-08-10T01:16:11.562Z,18.62
2018-08-10T01:21:16.538Z,18.57
2018-08-10T01:26:21.324Z,18.45
2018-08-10T01:31:26.220Z,18.33
2018-08-10T01:36:30.963Z,18.23
2018-08-10T01:41:35.704Z,18.16
2018-08-10T01:46:40.400Z,17.95
2018-08-10T01:51:45.121Z,18.00
2018-08-10T01:56:49.857Z,17.58
2018-08-10T02:01:54.622Z,17.62
2018-08-10T02:06:59.339Z,17.80
2018-08-10T02:12:04.095Z,17.73
2018-08-10T02:17:08.962Z,17.84
2018-08-10T02:22:13.749Z,17.81
2018-08-10T02:27:18.464Z,17.84
2018-08-10T02:32:23.209Z,17.72
2018-08-10T02:37:28.052Z,17.43
2018-08-10T02:42:32.784Z,17.20
2018-08-10T02:47:37.465Z,17.14
2018-08-10T02:52:42.361Z,17.00
2018-08-10T02:57:47.055Z,16.79
2018-08-10T03:02:52.061Z,16.78
2018-08-10T03:07:56.775Z,16.65
2018-08-10T03:13:01.424Z,16.59
2018-08-10T03:18:06.848Z,16.52
2018-08-10T03:23:11.580Z,16.29
2018-08-10T03:28:18.274Z,16.33
2018-08-10T03:33:23.060Z,16.26
2018-08-10T03:38:27.913Z,16.14
2018-08-10T03:43:32.650Z,16.02
2018-08-10T03:48:37.390Z,16.00
2018-08-10T03:53:42.313Z,15.94
2018-08-10T03:58:47.016Z,15.80
2018-08-10T04:03:51.904Z,15.88
2018-08-10T04:08:56.603Z,15.78
2018-08-10T04:14:01.552Z,15.75
2018-08-10T04:19:06.330Z,15.57
2018-08-10T04:24:11.143Z,15.65
2018-08-10T04:29:15.891Z,15.74
2018-08-10T04:34:20.716Z,15.77
2018-08-10T04:39:25.512Z,15.98
2018-08-10T04:44:30.334Z,16.43
2018-08-10T04:49:35.055Z,17.48
2018-08-10T04:54:39.783Z,17.48
2018-08-10T04:59:44.595Z,17.68
2018-08-10T05:04:49.293Z,18.25
2018-08-10T05:09:54.056Z,19.34
2018-08-10T05:14:58.967Z,19.29
2018-08-10T05:20:03.795Z,19.72
2018-08-10T05:25:08.579Z,20.07
2018-08-10T05:30:13.346Z,19.35
2018-08-10T05:35:18.343Z,20.09
2018-08-10T05:40:23.867Z,20.74
2018-08-10T05:45:28.752Z,21.44
2018-08-10T05:50:33.368Z,20.94
2018-08-10T05:55:38.020Z,20.14
2018-08-10T06:00:42.905Z,19.95
2018-08-10T06:05:47.541Z,19.89
2018-08-10T06:10:52.208Z,20.61
2018-08-10T06:15:56.989Z,21.06
2018-08-10T06:21:01.668Z,20.38
2018-08-10T06:26:06.592Z,19.50
2018-08-10T06:31:11.289Z,19.74
2018-08-10T06:36:16.047Z,19.30
2018-08-10T06:41:20.730Z,19.60
2018-08-10T06:46:25.525Z,19.49
2018-08-10T06:51:30.261Z,19.71
2018-08-10T06:56:35.075Z,18.79
2018-08-10T07:01:39.892Z,19.05
2018-08-10T07:06:44.508Z,19.84
2018-08-10T07:11:49.253Z,19.92
2018-08-10T07:16:54.060Z,19.29
2018-08-10T07:21:58.835Z,19.39
2018-08-10T07:27:03.643Z,19.84
2018-08-10T07:32:08.483Z,20.05
2018-08-10T07:37:13.197Z,20.17
2018-08-10T07:42:18.069Z,20.04
2018-08-10T07:47:22.925Z,20.70
2018-08-10T07:52:27.590Z,20.72
2018-08-10T07:57:32.428Z,20.28
2018-08-10T08:02:37.707Z,21.00
2018-08-10T08:07:42.363Z,20.98
2018-08-10T08:12:47.207Z,20.80
2018-08-10T08:17:52.051Z,21.20
2018-08-10T08:23:05.180Z,21.24
2018-08-10T08:28:10.004Z,21.43
2018-08-10T08:33:14.803Z,21.70
2018-08-10T08:38:36.252Z,22.62
2018-08-10T08:45:58.357Z,22.72
2018-08-10T08:51:04.618Z,22.81
2018-08-10T08:56:12.400Z,23.37
2018-08-10T09:01:17.769Z,23.09
2018-08-10T09:06:22.443Z,22.88
2018-08-10T09:11:27.308Z,22.85
2018-08-10T09:16:32.120Z,22.44
2018-08-10T09:21:37.009Z,23.23
2018-08-10T09:26:41.984Z,22.78
2018-08-10T09:31:46.863Z,22.84
2018-08-10T09:36:51.706Z,24.27
2018-08-10T09:41:56.505Z,23.06
2018-08-10T09:47:01.970Z,23.54
2018-08-10T09:52:08.455Z,23.58
2018-08-10T09:57:15.478Z,24.32
2018-08-10T10:02:22.086Z,24.14
2018-08-10T10:07:26.847Z,24.05
2018-08-10T10:12:31.605Z,23.89
2018-08-10T10:17:37.184Z,23.39
2018-08-10T10:22:42.292Z,23.19
2018-08-10T10:27:47.152Z,23.25
2018-08-10T10:32:53.117Z,22.49
2018-08-10T10:37:57.862Z,23.24
2018-08-10T10:43:02.678Z,24.06
2018-08-10T10:48:07.985Z,24.63
2018-08-10T10:53:12.780Z,24.15
2018-08-10T10:58:17.518Z,24.15
2018-08-10T11:03:22.437Z,24.89
2018-08-10T11:08:27.154Z,25.16
2018-08-10T11:13:31.877Z,24.94
2018-08-10T11:18:36.535Z,24.56
2018-08-10T11:23:41.360Z,24.35
2018-08-10T11:28:46.186Z,24.18
2018-08-10T11:33:51.044Z,23.83
2018-08-10T11:38:55.802Z,24.36
2018-08-10T11:44:00.551Z,24.71
2018-08-10T11:49:10.340Z,23.98
2018-08-10T11:54:15.265Z,24.93
2018-08-10T11:59:20.137Z,25.41
2018-08-10T12:04:24.916Z,24.31
2018-08-10T12:09:29.735Z,24.73
2018-08-10T12:14:34.451Z,25.04
2018-08-10T12:19:39.245Z,25.46
2018-08-10T12:24:44.078Z,25.80
2018-08-10T12:29:48.865Z,26.61
2018-08-10T12:34:53.563Z,26.17
2018-08-10T12:39:58.254Z,25.36
2018-08-10T12:45:03.027Z,25.20
2018-08-10T12:50:08.423Z,25.69
2018-08-10T12:55:13.258Z,26.11
2018-08-10T13:00:18.203Z,27.04
2018-08-10T13:05:22.967Z,27.23
2018-08-10T13:10:27.874Z,27.02
2018-08-10T13:15:32.715Z,26.64
2018-08-10T13:20:37.420Z,25.19
2018-08-10T13:25:42.147Z,25.02
2018-08-10T13:30:49.356Z,26.27
2018-08-10T13:35:54.060Z,26.73
2018-08-10T13:40:58.848Z,25.95
2018-08-10T13:46:03.557Z,26.49
2018-08-10T13:51:08.279Z,26.29
2018-08-10T13:56:13.132Z,25.38
2018-08-10T14:01:18.132Z,25.67
2018-08-10T14:06:22.924Z,26.71
2018-08-10T14:11:27.934Z,26.75
2018-08-10T14:16:33.371Z,27.64
2018-08-10T14:22:17.944Z,27.05
2018-08-10T14:27:22.771Z,26.65
2018-08-10T14:32:27.597Z,26.00
2018-08-10T14:37:32.524Z,26.54
2018-08-10T14:42:38.074Z,26.61
2018-08-10T14:47:43.150Z,26.59
2018-08-10T14:52:48.008Z,26.74
2018-08-10T14:57:52.893Z,26.21
2018-08-10T15:02:57.804Z,26.80
2018-08-10T15:08:02.609Z,26.86
2018-08-10T15:13:07.558Z,26.81
2018-08-10T15:18:12.544Z,27.33
2018-08-10T15:23:17.275Z,27.07
2018-08-10T15:28:22.116Z,26.87
2018-08-10T15:33:26.948Z,27.32
2018-08-10T15:38:31.970Z,27.10
2018-08-10T15:43:36.949Z,27.51
2018-08-10T15:48:41.845Z,27.10
2018-08-10T15:53:46.965Z,26.33
2018-08-10T15:58:51.842Z,26.23
2018-08-10T16:03:56.542Z,26.28
2018-08-10T16:09:01.399Z,26.28
2018-08-10T16:14:06.335Z,26.16
2018-08-10T16:19:11.149Z,26.26
2018-08-10T16:24:16.011Z,26.35
2018-08-10T16:29:20.895Z,25.48
2018-08-10T16:34:26.174Z,25.22
2018-08-10T16:39:31.001Z,25.56
2018-08-10T16:44:35.746Z,25.64
2018-08-10T16:49:40.590Z,25.66
2018-08-10T16:54:45.390Z,25.56
2018-08-10T16:59:50.185Z,25.08
2018-08-10T17:04:54.993Z,24.85
2018-08-10T17:09:59.842Z,24.72
2018-08-10T17:15:06.589Z,24.76
2018-08-10T17:20:11.795Z,24.65
2018-08-10T17:25:19.148Z,24.21
2018-08-10T17:30:23.951Z,24.21
2018-08-10T17:35:28.709Z,23.71
2018-08-10T17:40:33.468Z,23.33
2018-08-10T17:45:40.015Z,22.95
2018-08-10T17:50:44.845Z,22.71
2018-08-10T17:55:49.712Z,22.43
2018-08-10T18:00:54.582Z,22.13
2018-08-10T18:05:59.469Z,21.60
2018-08-10T18:11:04.385Z,21.23
2018-08-10T18:16:09.291Z,20.80
2018-08-10T18:21:14.167Z,20.47
2018-08-10T18:26:18.943Z,20.35
2018-08-10T18:31:23.887Z,20.18
2018-08-10T18:36:28.895Z,20.14
2018-08-10T18:41:33.895Z,20.19
2018-08-10T18:46:39.648Z,20.22
2018-08-10T18:51:44.387Z,19.89
2018-08-10T18:56:49.275Z,19.79
2018-08-10T19:01:54.079Z,19.80
2018-08-10T19:06:58.824Z,19.69
2018-08-10T19:12:03.711Z,19.52
2018-08-10T19:17:08.603Z,19.32
2018-08-10T19:22:13.613Z,19.12
2018-08-10T19:27:18.513Z,18.84
2018-08-10T19:32:23.831Z,18.40
2018-08-10T19:37:28.761Z,18.28
2018-08-10T19:42:33.647Z,18.14
2018-08-10T19:47:38.967Z,17.77
2018-08-10T19:52:44.272Z,17.75
2018-08-10T19:57:49.063Z,17.71
2018-08-10T20:02:53.907Z,17.86
2018-08-10T20:07:58.931Z,17.81
2018-08-10T20:13:03.764Z,17.83
2018-08-10T20:18:08.629Z,17.84
2018-08-10T20:23:13.521Z,17.75
2018-08-10T20:28:18.334Z,17.74
2018-08-10T20:33:23.091Z,17.72
2018-08-10T20:38:27.797Z,17.85
2018-08-10T20:43:32.644Z,17.66
2018-08-10T20:48:37.587Z,17.82
2018-08-10T20:53:42.604Z,17.81
2018-08-10T20:58:47.464Z,17.78
2018-08-10T21:03:52.284Z,17.63
2018-08-10T21:08:57.015Z,17.37
2018-08-10T21:14:01.908Z,17.07
2018-08-10T21:19:07.035Z,16.90
2018-08-10T21:24:11.769Z,16.94
2018-08-10T21:29:16.734Z,16.71
2018-08-10T21:34:21.449Z,16.57
2018-08-10T21:39:26.293Z,16.37
2018-08-10T21:44:31.109Z,16.23
2018-08-10T21:49:35.804Z,16.22
2018-08-10T21:54:40.527Z,16.10
2018-08-10T21:59:45.222Z,15.84
2018-08-10T22:04:49.930Z,15.87
2018-08-10T22:09:54.725Z,15.67
2018-08-10T22:15:04.762Z,15.49
2018-08-10T22:20:09.590Z,15.46
2018-08-10T22:25:14.622Z,15.71
2018-08-10T22:30:19.364Z,15.40
2018-08-10T22:35:24.202Z,15.18
2018-08-10T22:40:29.016Z,15.32
2018-08-10T22:45:33.882Z,15.02
2018-08-10T22:50:38.965Z,15.05
2018-08-10T22:55:43.730Z,14.90
2018-08-10T23:00:48.655Z,15.03
2018-08-10T23:05:53.442Z,15.11
2018-08-10T23:10:58.264Z,15.04
2018-08-10T23:16:03.074Z,15.21
2018-08-10T23:21:08.161Z,15.25
2018-08-10T23:26:13.058Z,15.20
2018-08-10T23:31:17.857Z,15.40
2018-08-10T23:36:22.726Z,15.34
2018-08-10T23:41:27.522Z,15.36
2018-08-10T23:46:32.417Z,15.47
2018-08-10T23:51:37.282Z,15.49
2018-08-10T23:56:42.112Z,15.41
